Pelican Lake, Wisconsin
Current Conditions -  °F | °C
As of 2:53 AM on Friday 24 Oct 2014 (Local Time) from KRHI Reporting Station
Moderate Fog Moderate Fog  
Wind Chill: 40°   Ceiling: 200
Heat Index: 44°   Visibility: 0.25mi
Dew Point: 43°   Wind: 7mph
Humidity: 96%   Direction: 230°SW
Pressure: 30.01"   Gusts: NA
Location:  45.5°N, 89.17°W
Report Text: KRHI 240753Z AUTO 23006KT 1/4SM FG VV002 07/06 A3001 RMK AO2 SLP172 T00670061
Loading
Personal Weather Stations






























Interactive Weather Map
Tropical Storm Tracking
New forecast layout! Learn more

10-Day Weather Forecast

Advertisements
Track Severe Weather on mobile